createdAt,value
2023-03-25T00:02:19.137Z,4.32
2023-03-25T00:04:51.894Z,4.47
2023-03-25T00:07:22.933Z,4.72
2023-03-25T00:09:52.971Z,4.60
2023-03-25T00:12:25.070Z,4.32
2023-03-25T00:14:58.539Z,4.53
2023-03-25T00:17:31.163Z,4.20
2023-03-25T00:20:02.555Z,4.30
2023-03-25T00:22:32.116Z,4.18
2023-03-25T00:25:01.712Z,4.25
2023-03-25T00:27:33.861Z,4.47
2023-03-25T00:30:03.427Z,3.42
2023-03-25T00:32:33.251Z,3.50
2023-03-25T00:35:02.790Z,3.55
2023-03-25T00:37:32.342Z,3.25
2023-03-25T00:40:01.888Z,3.40
2023-03-25T00:42:35.065Z,3.90
2023-03-25T00:45:04.634Z,3.80
2023-03-25T00:47:34.181Z,3.72
2023-03-25T00:50:03.960Z,3.60
2023-03-25T00:52:33.517Z,3.75
2023-03-25T00:55:03.072Z,3.55
2023-03-25T00:57:35.362Z,3.55
2023-03-25T01:00:06.531Z,3.22
2023-03-25T01:02:36.637Z,3.47
2023-03-25T01:05:07.243Z,3.30
2023-03-25T01:07:36.761Z,3.50
2023-03-25T01:10:07.272Z,3.40
2023-03-25T01:12:39.435Z,3.40
2023-03-25T01:15:10.718Z,3.00
2023-03-25T01:17:40.297Z,3.42
2023-03-25T01:20:11.762Z,3.60
2023-03-25T01:22:41.432Z,3.42
2023-03-25T01:25:11.580Z,4.10
2023-03-25T01:27:43.706Z,3.67
2023-03-25T01:30:15.025Z,3.72
2023-03-25T01:32:44.627Z,4.03
2023-03-25T01:35:14.267Z,4.10
2023-03-25T01:37:44.797Z,3.47
2023-03-25T01:40:21.199Z,3.63
2023-03-25T01:42:53.850Z,3.25
2023-03-25T01:45:29.876Z,3.70
2023-03-25T01:48:06.331Z,3.60
2023-03-25T01:50:37.328Z,4.00
2023-03-25T01:53:09.782Z,3.63
2023-03-25T01:55:41.446Z,3.92
2023-03-25T01:58:16.255Z,3.70
2023-03-25T02:00:48.662Z,3.80
2023-03-25T02:03:21.000Z,3.88
2023-03-25T02:05:57.712Z,3.83
2023-03-25T02:08:28.620Z,4.32
2023-03-25T02:10:58.368Z,4.38
2023-03-25T02:13:30.639Z,4.22
2023-03-25T02:16:14.078Z,3.58
2023-03-25T02:18:53.995Z,4.50
2023-03-25T02:21:50.317Z,4.43
2023-03-25T02:24:58.084Z,4.40
2023-03-25T02:27:46.092Z,4.47
2023-03-25T02:30:43.557Z,4.43
2023-03-25T02:33:45.793Z,4.68
2023-03-25T02:36:36.720Z,4.18
2023-03-25T02:39:15.276Z,4.00
2023-03-25T02:41:53.216Z,3.70
2023-03-25T02:44:32.883Z,4.28
2023-03-25T02:47:07.308Z,6.82
2023-03-25T02:49:39.381Z,6.00
2023-03-25T02:52:14.228Z,4.15
2023-03-25T02:54:47.889Z,4.50
2023-03-25T02:57:21.399Z,6.85
2023-03-25T02:59:54.301Z,5.70
2023-03-25T03:02:26.653Z,4.63
2023-03-25T03:04:58.825Z,4.28
2023-03-25T03:07:32.106Z,4.70
2023-03-25T03:10:13.608Z,4.30
2023-03-25T03:12:56.739Z,4.55
2023-03-25T03:15:39.862Z,4.72
2023-03-25T03:18:17.500Z,5.00
2023-03-25T03:20:58.221Z,4.85
2023-03-25T03:23:34.089Z,5.10
2023-03-25T03:26:12.090Z,5.28
2023-03-25T03:28:50.613Z,5.45
2023-03-25T03:31:48.362Z,5.22
2023-03-25T03:34:24.543Z,5.07
2023-03-25T03:39:31.907Z,5.20
2023-03-25T03:42:09.859Z,4.97
2023-03-25T03:44:43.385Z,4.82
2023-03-25T03:47:15.987Z,5.22
2023-03-25T03:49:49.714Z,5.38
2023-03-25T03:52:25.754Z,5.25
2023-03-25T03:54:59.335Z,4.72
2023-03-25T03:57:35.930Z,4.95
2023-03-25T04:00:10.114Z,4.38
2023-03-25T04:02:44.122Z,4.32
2023-03-25T04:05:16.989Z,4.35
2023-03-25T04:07:57.159Z,4.13
2023-03-25T04:10:34.995Z,4.78
2023-03-25T04:13:11.121Z,4.70
2023-03-25T04:18:12.245Z,5.05
2023-03-25T04:20:44.918Z,4.40
2023-03-25T04:23:17.279Z,4.28
2023-03-25T04:25:47.894Z,4.13
2023-03-25T04:28:20.471Z,4.00
2023-03-25T04:30:55.676Z,4.70
2023-03-25T04:33:25.565Z,5.00
2023-03-25T04:35:55.806Z,5.25
2023-03-25T04:38:25.475Z,4.57
2023-03-25T04:40:55.016Z,5.03
2023-03-25T04:43:28.552Z,4.05
2023-03-25T04:46:00.368Z,3.90
2023-03-25T04:48:32.761Z,3.92
2023-03-25T04:51:03.647Z,4.60
2023-03-25T04:53:33.328Z,4.55
2023-03-25T04:56:03.311Z,4.53
2023-03-25T04:58:37.086Z,4.80
2023-03-25T05:01:11.667Z,4.35
2023-03-25T05:03:41.676Z,4.00
2023-03-25T05:06:11.549Z,4.10
2023-03-25T05:08:41.078Z,4.60
2023-03-25T05:11:10.598Z,4.50
2023-03-25T05:13:42.715Z,4.35
2023-03-25T05:16:12.280Z,4.40
2023-03-25T05:18:41.881Z,4.93
2023-03-25T05:21:12.861Z,5.15
2023-03-25T05:23:43.409Z,5.50
2023-03-25T05:26:14.190Z,6.57
2023-03-25T05:28:46.301Z,8.15
2023-03-25T05:31:15.815Z,9.35
2023-03-25T05:33:48.041Z,8.00
2023-03-25T05:36:18.521Z,7.57
2023-03-25T05:38:48.521Z,6.38
2023-03-25T05:41:19.297Z,6.97
2023-03-25T05:43:52.165Z,6.72
2023-03-25T05:46:22.114Z,5.80
2023-03-25T05:48:51.680Z,5.82
2023-03-25T05:51:22.516Z,5.60
2023-03-25T05:53:53.435Z,4.95
2023-03-25T05:56:26.312Z,5.43
2023-03-25T05:58:59.203Z,4.05
2023-03-25T06:01:33.318Z,4.63
2023-03-25T06:04:03.995Z,4.18
2023-03-25T06:06:36.245Z,3.85
2023-03-25T06:09:05.974Z,2.97
2023-03-25T06:11:38.722Z,3.38
2023-03-25T06:14:10.994Z,2.90
2023-03-25T06:16:40.516Z,3.70
2023-03-25T06:19:10.058Z,3.75
2023-03-25T06:21:39.664Z,2.90
2023-03-25T06:24:10.402Z,4.22
2023-03-25T06:26:39.968Z,4.30
2023-03-25T06:29:12.281Z,4.28
2023-03-25T06:31:41.916Z,3.88
2023-03-25T06:34:11.705Z,3.80
2023-03-25T06:36:41.434Z,4.18
2023-03-25T06:39:11.376Z,4.20
2023-03-25T06:41:41.137Z,4.00
2023-03-25T06:44:13.223Z,4.20
2023-03-25T06:46:42.849Z,4.15
2023-03-25T06:49:12.626Z,4.38
2023-03-25T06:51:42.142Z,4.10
2023-03-25T06:54:11.668Z,4.22
2023-03-25T06:56:41.258Z,4.32
2023-03-25T06:59:13.389Z,3.85
2023-03-25T07:01:43.253Z,3.75
2023-03-25T07:04:13.233Z,4.28
2023-03-25T07:06:42.857Z,4.50
2023-03-25T07:09:12.438Z,4.47
2023-03-25T07:11:42.032Z,4.65
2023-03-25T07:14:14.178Z,4.00
2023-03-25T07:16:43.759Z,4.07
2023-03-25T07:19:13.289Z,4.50
2023-03-25T07:21:42.884Z,4.78
2023-03-25T07:24:12.476Z,5.00
2023-03-25T07:26:42.060Z,4.63
2023-03-25T07:29:14.223Z,4.78
2023-03-25T07:31:43.890Z,4.88
2023-03-25T07:34:13.461Z,4.82
2023-03-25T07:36:43.061Z,4.70
2023-03-25T07:39:12.656Z,4.55
2023-03-25T07:41:43.161Z,4.30
2023-03-25T07:44:18.226Z,4.35
2023-03-25T07:46:47.977Z,3.87
2023-03-25T07:49:17.852Z,3.25
2023-03-25T07:51:47.889Z,3.67
2023-03-25T07:54:17.434Z,2.75
2023-03-25T07:56:47.008Z,3.38
2023-03-25T07:59:19.371Z,3.70
2023-03-25T08:01:48.926Z,3.15
2023-03-25T08:04:18.456Z,3.50
2023-03-25T08:06:47.975Z,3.22
2023-03-25T08:09:17.450Z,3.38
2023-03-25T08:11:47.222Z,3.28
2023-03-25T08:14:19.306Z,3.47
2023-03-25T08:16:49.223Z,3.58
2023-03-25T08:19:19.100Z,3.53
2023-03-25T08:21:48.644Z,3.15
2023-03-25T08:24:18.177Z,3.55
2023-03-25T08:26:48.279Z,3.03
2023-03-25T08:29:20.410Z,3.15
2023-03-25T08:31:52.621Z,2.78
2023-03-25T08:34:28.709Z,2.75
2023-03-25T08:36:59.472Z,2.95
2023-03-25T08:42:00.266Z,3.20
2023-03-25T08:44:32.336Z,3.05
2023-03-25T08:47:02.034Z,2.70
2023-03-25T08:49:31.674Z,2.70
2023-03-25T08:52:02.107Z,2.80
2023-03-25T08:54:31.928Z,2.58
2023-03-25T08:57:01.576Z,2.55
2023-03-25T08:59:33.750Z,2.45
2023-03-25T09:02:03.796Z,3.03
2023-03-25T09:04:33.640Z,2.33
2023-03-25T09:07:10.512Z,2.00
2023-03-25T09:09:41.472Z,2.08
2023-03-25T09:12:11.732Z,2.80
2023-03-25T09:14:44.020Z,2.30
2023-03-25T09:17:13.537Z,2.70
2023-03-25T09:19:43.060Z,2.40
2023-03-25T09:22:12.644Z,1.80
2023-03-25T09:24:42.340Z,1.45
2023-03-25T09:27:12.314Z,1.55
2023-03-25T09:29:44.593Z,2.00
2023-03-25T09:32:15.190Z,1.60
2023-03-25T09:34:45.107Z,1.70
2023-03-25T09:37:14.956Z,1.73
2023-03-25T09:39:44.534Z,1.83
2023-03-25T09:42:32.501Z,1.70
2023-03-25T09:45:15.500Z,1.67
2023-03-25T09:47:55.294Z,2.00
2023-03-25T09:50:26.375Z,1.80
2023-03-25T09:53:00.472Z,1.80
2023-03-25T09:55:35.203Z,1.73
2023-03-25T09:58:18.846Z,1.90
2023-03-25T10:00:56.930Z,2.28
2023-03-25T10:03:32.026Z,2.33
2023-03-25T10:06:14.792Z,2.20
2023-03-25T10:09:13.844Z,1.73
2023-03-25T10:11:51.043Z,1.90
2023-03-25T10:14:24.760Z,2.08
2023-03-25T10:17:07.994Z,1.90
2023-03-25T10:19:56.853Z,1.98
2023-03-25T10:22:31.360Z,1.90
2023-03-25T10:25:04.212Z,1.88
2023-03-25T10:27:40.031Z,1.95
2023-03-25T10:30:15.960Z,1.73
2023-03-25T10:35:23.143Z,1.80
2023-03-25T10:37:58.091Z,1.67
2023-03-25T10:40:32.643Z,1.75
2023-03-25T10:43:17.139Z,1.48
2023-03-25T10:45:48.591Z,2.00
2023-03-25T10:48:25.688Z,1.85
2023-03-25T10:51:03.798Z,2.00
2023-03-25T10:53:33.623Z,1.83
2023-03-25T10:56:07.814Z,1.92
2023-03-25T10:58:42.445Z,1.67
2023-03-25T11:01:15.704Z,1.90
2023-03-25T11:03:52.153Z,1.95
2023-03-25T11:06:29.864Z,2.10
2023-03-25T11:09:01.616Z,2.38
2023-03-25T11:11:35.938Z,2.00
2023-03-25T11:14:06.124Z,1.98
2023-03-25T11:16:36.976Z,1.77
2023-03-25T11:19:09.767Z,2.00
2023-03-25T11:21:39.290Z,2.10
2023-03-25T11:24:09.823Z,2.00
2023-03-25T11:26:41.913Z,2.33
2023-03-25T11:29:16.165Z,2.60
2023-03-25T11:31:46.510Z,2.40
2023-03-25T11:34:24.282Z,2.40
2023-03-25T11:36:57.817Z,2.45
2023-03-25T11:39:35.820Z,2.08
2023-03-25T11:42:17.885Z,2.33
2023-03-25T11:44:53.843Z,2.60
2023-03-25T11:47:28.355Z,2.80
2023-03-25T11:50:01.178Z,2.50
2023-03-25T11:52:38.321Z,1.90
2023-03-25T11:55:09.029Z,2.13
2023-03-25T11:57:43.264Z,2.30
2023-03-25T12:00:29.558Z,2.25
2023-03-25T12:05:36.701Z,2.10
2023-03-25T12:08:16.451Z,1.88
2023-03-25T12:10:54.055Z,1.60
2023-03-25T12:13:36.082Z,1.67
2023-03-25T12:16:19.868Z,1.58
2023-03-25T12:19:02.737Z,2.00
2023-03-25T12:21:47.669Z,2.28
2023-03-25T12:24:31.292Z,2.22
2023-03-25T12:27:15.852Z,2.20
2023-03-25T12:29:54.821Z,1.95
2023-03-25T12:32:37.448Z,2.13
2023-03-25T12:35:22.489Z,2.20
2023-03-25T12:38:10.689Z,2.15
2023-03-25T12:40:53.949Z,2.53
2023-03-25T12:43:32.226Z,2.28
2023-03-25T12:46:17.698Z,2.30
2023-03-25T12:49:11.114Z,2.60
2023-03-25T12:51:50.235Z,2.20
2023-03-25T12:54:42.378Z,2.63
2023-03-25T12:57:23.509Z,2.50
2023-03-25T13:00:11.277Z,2.38
2023-03-25T13:03:08.966Z,2.95
2023-03-25T13:05:44.541Z,2.40
2023-03-25T13:08:19.700Z,3.30
2023-03-25T13:10:59.867Z,3.50
2023-03-25T13:13:32.691Z,2.78
2023-03-25T13:16:08.086Z,2.17
2023-03-25T13:18:43.771Z,2.47
2023-03-25T13:21:21.935Z,1.50
2023-03-25T13:23:57.432Z,1.70
2023-03-25T13:26:33.158Z,1.70
2023-03-25T13:29:05.702Z,1.48
2023-03-25T13:31:38.323Z,1.70
2023-03-25T13:34:20.856Z,1.60
2023-03-25T13:37:01.858Z,1.80
2023-03-25T13:39:36.050Z,1.80
2023-03-25T13:42:16.316Z,1.40
2023-03-25T13:44:50.849Z,1.60
2023-03-25T13:47:26.420Z,1.70
2023-03-25T13:50:00.862Z,1.70
2023-03-25T13:52:34.635Z,1.40
2023-03-25T13:55:11.678Z,1.92
2023-03-25T13:58:09.448Z,1.80
2023-03-25T14:01:02.096Z,1.77
2023-03-25T14:03:48.127Z,1.67
2023-03-25T14:06:45.446Z,2.00
2023-03-25T14:09:40.125Z,2.10
2023-03-25T14:12:12.373Z,1.83
2023-03-25T14:14:48.070Z,2.15
2023-03-25T14:17:20.534Z,2.10
2023-03-25T14:19:55.456Z,1.77
2023-03-25T14:22:27.269Z,2.50
2023-03-25T14:24:58.335Z,2.22
2023-03-25T14:27:31.386Z,1.88
2023-03-25T14:30:06.120Z,2.17
2023-03-25T14:32:40.981Z,2.10
2023-03-25T14:35:41.649Z,2.10
2023-03-25T14:38:53.271Z,2.47
2023-03-25T14:42:00.292Z,1.92
2023-03-25T14:44:33.256Z,2.30
2023-03-25T14:47:32.288Z,1.98
2023-03-25T14:50:08.656Z,2.40
2023-03-25T14:52:43.490Z,2.50
2023-03-25T14:55:20.362Z,2.50
2023-03-25T14:57:52.509Z,2.78
2023-03-25T15:00:29.438Z,2.70
2023-03-25T15:03:07.691Z,2.28
2023-03-25T15:05:39.283Z,2.40
2023-03-25T15:08:17.872Z,1.98
2023-03-25T15:10:52.848Z,1.92
2023-03-25T15:13:27.580Z,2.30
2023-03-25T15:16:01.657Z,2.20
2023-03-25T15:19:01.399Z,1.90
2023-03-25T15:21:58.171Z,1.88
2023-03-25T15:24:31.976Z,1.60
2023-03-25T15:27:03.989Z,1.95
2023-03-25T15:29:48.329Z,1.65
2023-03-25T15:32:54.986Z,1.63
2023-03-25T15:35:39.956Z,1.80
2023-03-25T15:38:42.535Z,1.90
2023-03-25T15:41:26.353Z,2.17
2023-03-25T15:44:14.797Z,2.10
2023-03-25T15:47:07.959Z,2.20
2023-03-25T15:49:52.086Z,2.40
2023-03-25T15:52:39.382Z,2.10
2023-03-25T15:55:15.313Z,2.20
2023-03-25T15:57:48.917Z,2.20
2023-03-25T16:00:25.441Z,2.25
2023-03-25T16:03:02.599Z,2.47
2023-03-25T16:05:34.049Z,2.20
2023-03-25T16:08:11.526Z,2.08
2023-03-25T16:10:49.757Z,1.92
2023-03-25T16:13:24.143Z,2.10
2023-03-25T16:15:56.551Z,1.80
2023-03-25T16:18:28.648Z,2.17
2023-03-25T16:21:01.344Z,2.20
2023-03-25T16:23:32.959Z,1.98
2023-03-25T16:26:05.252Z,1.90
2023-03-25T16:28:36.912Z,2.00
2023-03-25T16:31:07.441Z,2.17
2023-03-25T16:33:41.892Z,1.85
2023-03-25T16:36:19.027Z,1.98
2023-03-25T16:38:48.582Z,2.10
2023-03-25T16:41:20.796Z,2.53
2023-03-25T16:43:50.474Z,2.47
2023-03-25T16:46:23.762Z,2.35
2023-03-25T16:48:56.476Z,3.00
2023-03-25T16:51:30.076Z,3.33
2023-03-25T16:54:01.189Z,3.60
2023-03-25T16:56:35.148Z,2.75
2023-03-25T16:59:07.899Z,3.15
2023-03-25T17:01:42.763Z,2.97
2023-03-25T17:04:17.917Z,3.35
2023-03-25T17:06:53.156Z,3.10
2023-03-25T17:09:25.820Z,3.37
2023-03-25T17:12:00.786Z,2.83
2023-03-25T17:14:33.889Z,3.40
2023-03-25T17:17:12.560Z,4.10
2023-03-25T17:19:48.593Z,4.90
2023-03-25T17:22:23.916Z,4.60
2023-03-25T17:24:57.557Z,4.03
2023-03-25T17:27:36.807Z,4.22
2023-03-25T17:30:20.364Z,4.10
2023-03-25T17:32:51.227Z,4.63
2023-03-25T17:35:23.555Z,3.88
2023-03-25T17:37:53.548Z,4.75
2023-03-25T17:40:26.246Z,4.25
2023-03-25T17:42:59.869Z,4.35
2023-03-25T17:45:29.460Z,4.60
2023-03-25T17:47:59.177Z,4.30
2023-03-25T17:50:33.218Z,4.40
2023-03-25T17:53:02.745Z,3.88
2023-03-25T17:55:32.326Z,3.83
2023-03-25T17:58:05.128Z,4.10
2023-03-25T18:00:35.949Z,4.40
2023-03-25T18:03:12.795Z,4.10
2023-03-25T18:05:42.453Z,4.15
2023-03-25T18:08:15.627Z,4.53
2023-03-25T18:10:45.699Z,5.15
2023-03-25T18:13:17.850Z,4.40
2023-03-25T18:15:47.544Z,4.45
2023-03-25T18:18:20.152Z,5.75
2023-03-25T18:20:50.748Z,6.47
2023-03-25T18:23:20.884Z,7.05
2023-03-25T18:25:50.776Z,7.07
2023-03-25T18:28:22.945Z,5.43
2023-03-25T18:30:55.489Z,6.15
2023-03-25T18:33:26.418Z,6.10
2023-03-25T18:35:56.563Z,5.07
2023-03-25T18:38:28.319Z,3.90
2023-03-25T18:40:59.236Z,3.58
2023-03-25T18:43:31.506Z,4.00
2023-03-25T18:46:01.103Z,4.05
2023-03-25T18:48:30.676Z,5.50
2023-03-25T18:51:02.236Z,5.03
2023-03-25T18:53:32.321Z,5.85
2023-03-25T18:56:05.033Z,5.82
2023-03-25T18:58:40.019Z,5.55
2023-03-25T19:01:10.498Z,5.72
2023-03-25T19:03:42.817Z,5.05
2023-03-25T19:06:14.945Z,5.90
2023-03-25T19:08:45.816Z,4.60
2023-03-25T19:11:21.720Z,4.72
2023-03-25T19:13:55.650Z,4.55
2023-03-25T19:16:25.228Z,3.65
2023-03-25T19:18:54.801Z,3.10
2023-03-25T19:21:24.382Z,3.40
2023-03-25T19:23:54.220Z,3.00
2023-03-25T19:26:23.879Z,3.00
2023-03-25T19:28:56.137Z,3.00
2023-03-25T19:31:25.736Z,2.90
2023-03-25T19:33:55.276Z,2.78
2023-03-25T19:36:25.955Z,3.28
2023-03-25T19:39:05.730Z,3.20
2023-03-25T19:41:42.225Z,3.50
2023-03-25T19:44:14.635Z,2.92
2023-03-25T19:46:44.173Z,2.67
2023-03-25T19:49:13.717Z,2.92
2023-03-25T19:51:45.336Z,3.03
2023-03-25T19:54:15.499Z,3.30
2023-03-25T19:56:45.180Z,3.03
2023-03-25T19:59:17.531Z,3.05
2023-03-25T20:01:47.264Z,3.05
2023-03-25T20:04:17.084Z,3.22
2023-03-25T20:06:47.837Z,2.95
2023-03-25T20:09:17.425Z,3.40
2023-03-25T20:11:47.953Z,3.17
2023-03-25T20:14:20.145Z,4.03
2023-03-25T20:16:49.735Z,6.55
2023-03-25T20:19:19.308Z,14.32
2023-03-25T20:21:48.825Z,20.25
2023-03-25T20:24:18.421Z,12.63
2023-03-25T20:26:48.517Z,6.30
2023-03-25T20:29:22.446Z,3.70
2023-03-25T20:31:52.957Z,3.00
2023-03-25T20:34:22.545Z,3.03
2023-03-25T20:36:52.320Z,2.92
2023-03-25T20:39:23.208Z,2.83
2023-03-25T20:41:52.979Z,2.88
2023-03-25T20:44:25.190Z,3.15
2023-03-25T20:46:54.768Z,3.00
2023-03-25T20:49:24.480Z,3.28
2023-03-25T20:51:54.749Z,2.67
2023-03-25T20:54:25.341Z,3.10
2023-03-25T20:56:54.940Z,2.95
2023-03-25T20:59:27.375Z,2.97
2023-03-25T21:01:57.138Z,3.00
2023-03-25T21:04:28.117Z,2.70
2023-03-25T21:06:57.733Z,3.17
2023-03-25T21:09:27.456Z,2.65
2023-03-25T21:11:57.003Z,3.33
2023-03-25T21:14:29.197Z,3.53
2023-03-25T21:16:58.777Z,3.33
2023-03-25T21:19:28.382Z,3.40
2023-03-25T21:21:58.278Z,5.00
2023-03-25T21:24:27.837Z,5.68
2023-03-25T21:26:57.361Z,3.25
2023-03-25T21:29:29.572Z,2.97
2023-03-25T21:31:59.268Z,2.92
2023-03-25T21:34:30.441Z,2.78
2023-03-25T21:37:01.026Z,2.65
2023-03-25T21:39:30.625Z,2.90
2023-03-25T21:42:00.184Z,2.70
2023-03-25T21:44:43.153Z,3.72
2023-03-25T21:47:14.583Z,3.13
2023-03-25T21:49:44.071Z,3.08
2023-03-25T21:52:13.809Z,3.25
2023-03-25T21:54:44.000Z,3.50
2023-03-25T21:57:14.055Z,3.30
2023-03-25T21:59:46.552Z,3.08
2023-03-25T22:02:17.310Z,3.83
2023-03-25T22:04:46.861Z,3.17
2023-03-25T22:07:16.605Z,3.50
2023-03-25T22:09:48.157Z,3.03
2023-03-25T22:12:17.762Z,3.47
2023-03-25T22:14:49.890Z,3.55
2023-03-25T22:17:19.457Z,3.55
2023-03-25T22:19:50.803Z,3.40
2023-03-25T22:22:21.746Z,4.70
2023-03-25T22:24:52.288Z,4.47
2023-03-25T22:27:21.853Z,3.90
2023-03-25T22:29:53.907Z,4.78
2023-03-25T22:32:27.343Z,4.82
2023-03-25T22:34:57.225Z,4.75
2023-03-25T22:37:26.780Z,5.50
2023-03-25T22:39:56.326Z,4.90
2023-03-25T22:42:25.919Z,4.80
2023-03-25T22:44:58.040Z,4.78
2023-03-25T22:47:27.561Z,4.70
2023-03-25T22:49:57.126Z,4.35
2023-03-25T22:52:26.664Z,4.43
2023-03-25T22:54:56.344Z,4.05
2023-03-25T22:57:26.073Z,4.35
2023-03-25T22:59:58.158Z,4.30
2023-03-25T23:02:27.645Z,3.80
2023-03-25T23:04:58.527Z,4.03
2023-03-25T23:07:28.154Z,3.90
2023-03-25T23:09:57.683Z,3.92
2023-03-25T23:12:28.945Z,3.55
2023-03-25T23:15:01.183Z,3.30
2023-03-25T23:17:30.918Z,3.72
2023-03-25T23:20:00.554Z,3.40
2023-03-25T23:22:31.059Z,4.22
2023-03-25T23:25:00.684Z,4.22
2023-03-25T23:27:30.799Z,3.60
2023-03-25T23:30:03.262Z,3.55
2023-03-25T23:32:32.857Z,3.03
2023-03-25T23:35:03.486Z,3.80
2023-03-25T23:37:34.312Z,3.92
2023-03-25T23:40:04.522Z,3.60
2023-03-25T23:42:35.407Z,3.78
2023-03-25T23:45:08.842Z,3.58
2023-03-25T23:47:38.385Z,3.03
2023-03-25T23:50:09.277Z,3.70
2023-03-25T23:52:38.827Z,3.63
2023-03-25T23:55:12.488Z,3.15
2023-03-25T23:57:42.037Z,3.85
